createdAt,value
2023-05-12T00:02:22.574Z,1.02
2023-05-12T00:04:50.377Z,0.98
2023-05-12T00:07:18.159Z,0.60
2023-05-12T00:09:45.805Z,0.57
2023-05-12T00:12:13.497Z,0.68
2023-05-12T00:14:41.241Z,1.38
2023-05-12T00:17:09.844Z,0.45
2023-05-12T00:19:41.413Z,1.20
2023-05-12T00:22:09.128Z,0.80
2023-05-12T00:24:36.785Z,0.57
2023-05-12T00:27:04.624Z,1.30
2023-05-12T00:29:32.433Z,0.52
2023-05-12T00:32:00.352Z,0.90
2023-05-12T00:34:28.440Z,0.57
2023-05-12T00:36:57.676Z,0.65
2023-05-12T00:39:25.411Z,0.25
2023-05-12T00:41:55.749Z,0.70
2023-05-12T00:44:23.418Z,0.70
2023-05-12T00:46:51.539Z,0.52
2023-05-12T00:49:19.477Z,0.35
2023-05-12T00:51:47.244Z,0.63
2023-05-12T00:54:17.187Z,0.65
2023-05-12T00:56:44.960Z,0.65
2023-05-12T00:59:12.863Z,0.65
2023-05-12T01:01:42.558Z,1.40
2023-05-12T01:04:10.486Z,1.10
2023-05-12T01:06:39.825Z,0.73
2023-05-12T01:09:09.203Z,0.52
2023-05-12T01:11:39.083Z,0.52
2023-05-12T01:14:07.399Z,1.02
2023-05-12T01:16:37.282Z,0.35
2023-05-12T01:19:07.412Z,0.73
2023-05-12T01:21:37.000Z,1.23
2023-05-12T01:24:09.630Z,0.40
2023-05-12T01:26:39.616Z,0.65
2023-05-12T01:29:08.092Z,0.60
2023-05-12T01:31:36.021Z,0.85
2023-05-12T01:34:04.519Z,0.77
2023-05-12T01:36:32.582Z,0.75
2023-05-12T01:39:00.311Z,0.70
2023-05-12T01:41:28.027Z,0.65
2023-05-12T01:43:57.116Z,1.65
2023-05-12T01:46:24.980Z,1.13
2023-05-12T01:48:55.374Z,0.52
2023-05-12T01:51:23.024Z,1.00
2023-05-12T01:53:51.002Z,0.93
2023-05-12T01:56:19.958Z,0.60
2023-05-12T01:58:47.666Z,0.65
2023-05-12T02:01:17.053Z,0.70
2023-05-12T02:03:44.927Z,0.60
2023-05-12T02:06:14.946Z,1.55
2023-05-12T02:08:42.988Z,0.65
2023-05-12T02:11:11.021Z,0.68
2023-05-12T02:13:39.414Z,0.38
2023-05-12T02:16:07.728Z,0.57
2023-05-12T02:18:36.880Z,0.32
2023-05-12T02:21:06.639Z,0.93
2023-05-12T02:23:34.342Z,0.20
2023-05-12T02:26:02.208Z,0.65
2023-05-12T02:28:29.935Z,0.47
2023-05-12T02:30:57.712Z,0.50
2023-05-12T02:33:25.555Z,0.28
2023-05-12T02:35:54.837Z,0.50
2023-05-12T02:38:22.566Z,0.63
2023-05-12T02:40:50.756Z,0.40
2023-05-12T02:43:18.506Z,0.80
2023-05-12T02:45:46.484Z,0.40
2023-05-12T02:48:14.197Z,0.52
2023-05-12T02:50:41.864Z,0.43
2023-05-12T02:53:10.963Z,0.40
2023-05-12T02:55:38.636Z,0.55
2023-05-12T02:58:06.437Z,0.45
2023-05-12T03:00:34.161Z,0.38
2023-05-12T03:03:02.025Z,0.40
2023-05-12T03:05:29.829Z,0.60
2023-05-12T03:07:57.525Z,0.88
2023-05-12T03:10:26.844Z,0.30
2023-05-12T03:12:54.814Z,0.65
2023-05-12T03:15:22.520Z,0.50
2023-05-12T03:17:50.526Z,0.70
2023-05-12T03:20:19.270Z,0.47
2023-05-12T03:22:47.318Z,0.38
2023-05-12T03:25:15.683Z,0.55
2023-05-12T03:27:44.774Z,1.05
2023-05-12T03:30:13.369Z,0.40
2023-05-12T03:32:41.520Z,0.28
2023-05-12T03:35:11.039Z,0.45
2023-05-12T03:37:39.023Z,0.52
2023-05-12T03:40:08.157Z,0.52
2023-05-12T03:42:35.889Z,0.65
2023-05-12T03:45:06.984Z,0.30
2023-05-12T03:47:36.091Z,0.65
2023-05-12T03:50:04.294Z,0.68
2023-05-12T03:52:32.034Z,0.35
2023-05-12T03:54:59.724Z,0.75
2023-05-12T03:57:27.360Z,0.52
2023-05-12T03:59:56.064Z,0.30
2023-05-12T04:02:25.269Z,0.30
2023-05-12T04:04:53.020Z,0.60
2023-05-12T04:07:21.142Z,0.30
2023-05-12T04:09:48.794Z,0.65
2023-05-12T04:12:16.567Z,0.73
2023-05-12T04:14:45.731Z,0.43
2023-05-12T04:17:13.589Z,0.40
2023-05-12T04:19:42.814Z,0.40
2023-05-12T04:22:10.559Z,0.57
2023-05-12T04:24:38.649Z,0.50
2023-05-12T04:27:07.081Z,0.30
2023-05-12T04:29:36.271Z,0.43
2023-05-12T04:32:04.097Z,0.63
2023-05-12T04:34:31.894Z,0.20
2023-05-12T04:37:01.378Z,0.47
2023-05-12T04:39:29.041Z,0.30
2023-05-12T04:41:57.548Z,0.35
2023-05-12T04:44:25.527Z,0.55
2023-05-12T04:46:56.137Z,0.52
2023-05-12T04:49:23.940Z,0.60
2023-05-12T04:51:51.634Z,0.30
2023-05-12T04:54:20.692Z,0.28
2023-05-12T04:56:48.383Z,0.30
2023-05-12T04:59:16.633Z,0.30
2023-05-12T05:01:47.539Z,0.60
2023-05-12T05:04:15.637Z,0.20
2023-05-12T05:06:43.420Z,0.73
2023-05-12T05:09:11.537Z,0.85
2023-05-12T05:11:41.181Z,0.10
2023-05-12T05:14:08.859Z,0.52
2023-05-12T05:16:37.126Z,0.32
2023-05-12T05:19:06.692Z,0.60
2023-05-12T05:21:39.713Z,0.88
2023-05-12T05:24:09.055Z,0.40
2023-05-12T05:26:37.530Z,0.20
2023-05-12T05:29:07.364Z,0.20
2023-05-12T05:31:36.313Z,0.70
2023-05-12T05:34:04.034Z,0.52
2023-05-12T05:36:31.945Z,0.50
2023-05-12T05:38:59.593Z,0.60
2023-05-12T05:41:27.268Z,0.47
2023-05-12T05:43:55.558Z,0.38
2023-05-12T05:46:24.873Z,0.50
2023-05-12T05:48:52.820Z,0.70
2023-05-12T05:51:20.732Z,0.65
2023-05-12T05:53:49.004Z,0.50
2023-05-12T05:56:18.031Z,0.32
2023-05-12T05:58:45.728Z,0.80
2023-05-12T06:01:13.922Z,0.22
2023-05-12T06:03:44.279Z,0.77
2023-05-12T06:06:12.077Z,0.60
2023-05-12T06:08:40.075Z,0.90
2023-05-12T06:11:07.760Z,0.40
2023-05-12T06:13:36.245Z,0.40
2023-05-12T06:16:03.911Z,0.50
2023-05-12T06:18:33.848Z,0.65
2023-05-12T06:21:02.977Z,0.75
2023-05-12T06:23:30.988Z,0.55
2023-05-12T06:25:58.676Z,0.50
2023-05-12T06:28:28.748Z,0.73
2023-05-12T06:30:56.452Z,0.88
2023-05-12T06:33:24.552Z,0.40
2023-05-12T06:35:52.225Z,0.45
2023-05-12T06:38:21.254Z,0.52
2023-05-12T06:40:48.947Z,0.30
2023-05-12T06:43:16.643Z,0.50
2023-05-12T06:45:46.223Z,0.80
2023-05-12T06:48:14.404Z,0.43
2023-05-12T06:50:42.250Z,0.50
2023-05-12T06:53:09.960Z,0.45
2023-05-12T06:55:39.027Z,0.45
2023-05-12T06:58:06.870Z,0.73
2023-05-12T07:00:34.684Z,0.32
2023-05-12T07:03:02.462Z,0.32
2023-05-12T07:05:30.209Z,0.75
2023-05-12T07:07:57.887Z,0.25
2023-05-12T07:10:25.602Z,0.60
2023-05-12T07:12:54.675Z,0.65
2023-05-12T07:15:22.571Z,0.60
2023-05-12T07:17:50.682Z,0.32
2023-05-12T07:20:18.455Z,0.57
2023-05-12T07:22:46.138Z,1.05
2023-05-12T07:25:14.152Z,0.70
2023-05-12T07:27:42.047Z,0.77
2023-05-12T07:30:11.523Z,0.30
2023-05-12T07:32:39.228Z,1.20
2023-05-12T07:35:07.624Z,0.52
2023-05-12T07:37:35.309Z,0.40
2023-05-12T07:40:03.175Z,0.28
2023-05-12T07:42:30.827Z,0.60
2023-05-12T07:44:58.548Z,0.50
2023-05-12T07:47:28.744Z,0.98
2023-05-12T07:49:56.500Z,0.20
2023-05-12T07:52:24.259Z,0.93
2023-05-12T07:54:51.953Z,0.57
2023-05-12T07:57:19.857Z,1.13
2023-05-12T07:59:47.637Z,0.50
2023-05-12T08:02:17.315Z,0.88
2023-05-12T08:04:46.444Z,0.82
2023-05-12T08:07:14.135Z,1.17
2023-05-12T08:09:41.801Z,1.05
2023-05-12T08:12:10.631Z,0.75
2023-05-12T08:14:38.508Z,1.25
2023-05-12T08:17:06.784Z,0.60
2023-05-12T08:19:34.514Z,0.98
2023-05-12T08:22:03.877Z,0.60
2023-05-12T08:24:31.681Z,1.05
2023-05-12T08:26:59.377Z,1.13
2023-05-12T08:29:27.031Z,0.90
2023-05-12T08:31:54.726Z,0.75
2023-05-12T08:34:22.596Z,0.98
2023-05-12T08:36:50.537Z,1.70
2023-05-12T08:39:19.693Z,1.10
2023-05-12T08:41:51.557Z,1.52
2023-05-12T08:44:19.690Z,1.42
2023-05-12T08:46:48.661Z,1.45
2023-05-12T08:49:18.325Z,2.05
2023-05-12T08:51:56.490Z,1.45
2023-05-12T08:54:28.039Z,1.73
2023-05-12T08:59:26.376Z,2.00
2023-05-12T09:01:54.167Z,1.20
2023-05-12T09:04:21.929Z,1.40
2023-05-12T09:06:49.867Z,1.75
2023-05-12T09:09:17.992Z,1.20
2023-05-12T09:11:48.848Z,0.88
2023-05-12T09:14:19.118Z,1.20
2023-05-12T09:16:48.671Z,0.90
2023-05-12T09:19:20.180Z,0.80
2023-05-12T09:21:47.839Z,1.17
2023-05-12T09:24:15.509Z,1.05
2023-05-12T09:26:48.125Z,0.68
2023-05-12T09:29:27.665Z,1.73
2023-05-12T09:31:59.660Z,2.15
2023-05-12T09:34:31.196Z,2.20
2023-05-12T09:37:01.027Z,2.20
2023-05-12T09:39:29.088Z,2.60
2023-05-12T09:41:58.240Z,2.28
2023-05-12T09:44:26.324Z,2.47
2023-05-12T09:46:54.438Z,2.60
2023-05-12T09:49:22.499Z,2.42
2023-05-12T09:51:52.652Z,2.47
2023-05-12T09:54:26.300Z,2.67
2023-05-12T09:56:53.985Z,2.65
2023-05-12T09:59:26.751Z,2.47
2023-05-12T10:01:56.217Z,2.40
2023-05-12T10:04:24.213Z,2.40
2023-05-12T10:06:52.874Z,2.40
2023-05-12T10:09:21.608Z,2.70
2023-05-12T10:11:53.526Z,2.60
2023-05-12T10:14:24.525Z,2.80
2023-05-12T10:16:53.086Z,2.65
2023-05-12T10:19:21.199Z,2.88
2023-05-12T10:21:48.897Z,2.90
2023-05-12T10:24:17.166Z,2.60
2023-05-12T10:26:45.196Z,2.33
2023-05-12T10:29:13.552Z,2.50
2023-05-12T10:31:45.096Z,2.47
2023-05-12T10:34:17.507Z,3.05
2023-05-12T10:36:47.157Z,2.47
2023-05-12T10:39:16.013Z,2.60
2023-05-12T10:41:43.711Z,2.75
2023-05-12T10:44:11.386Z,2.50
2023-05-12T10:46:39.169Z,2.78
2023-05-12T10:49:10.324Z,2.53
2023-05-12T10:51:48.345Z,2.50
2023-05-12T10:54:20.282Z,2.97
2023-05-12T10:56:48.568Z,2.30
2023-05-12T10:59:20.629Z,2.70
2023-05-12T11:01:58.946Z,2.55
2023-05-12T11:04:38.032Z,2.65
2023-05-12T11:07:06.266Z,2.45
2023-05-12T11:09:36.915Z,2.45
2023-05-12T11:12:08.808Z,2.60
2023-05-12T11:14:37.269Z,2.22
2023-05-12T11:17:05.052Z,2.28
2023-05-12T11:19:32.897Z,2.33
2023-05-12T11:22:06.634Z,2.50
2023-05-12T11:24:34.355Z,2.30
2023-05-12T11:27:02.049Z,2.20
2023-05-12T11:29:29.875Z,1.30
2023-05-12T11:31:57.720Z,1.00
2023-05-12T11:34:25.858Z,1.58
2023-05-12T11:36:54.092Z,1.58
2023-05-12T11:39:24.045Z,0.70
2023-05-12T11:41:54.709Z,0.70
2023-05-12T11:44:29.890Z,0.50
2023-05-12T11:47:00.430Z,0.82
2023-05-12T11:49:29.010Z,0.95
2023-05-12T11:51:58.566Z,1.45
2023-05-12T11:54:29.367Z,0.55
2023-05-12T11:56:57.663Z,0.63
2023-05-12T11:59:29.666Z,0.90
2023-05-12T12:01:57.726Z,0.88
2023-05-12T12:04:35.364Z,0.90
2023-05-12T12:07:03.140Z,0.93
2023-05-12T12:09:36.407Z,0.70
2023-05-12T12:12:06.225Z,1.08
2023-05-12T12:14:34.893Z,0.98
2023-05-12T12:17:02.960Z,0.98
2023-05-12T12:19:30.690Z,1.25
2023-05-12T12:21:59.093Z,0.77
2023-05-12T12:24:26.790Z,0.32
2023-05-12T12:26:55.903Z,1.30
2023-05-12T12:29:24.815Z,0.82
2023-05-12T12:31:52.615Z,0.82
2023-05-12T12:34:20.307Z,1.17
2023-05-12T12:36:48.060Z,0.80
2023-05-12T12:39:16.764Z,0.70
2023-05-12T12:41:48.068Z,1.25
2023-05-12T12:44:17.691Z,0.52
2023-05-12T12:46:45.411Z,1.08
2023-05-12T12:49:13.213Z,1.08
2023-05-12T12:51:46.205Z,0.52
2023-05-12T12:54:14.739Z,0.98
2023-05-12T12:56:42.423Z,0.98
2023-05-12T12:59:10.207Z,0.60
2023-05-12T13:01:39.276Z,1.00
2023-05-12T13:04:06.948Z,0.80
2023-05-12T13:06:34.710Z,1.05
2023-05-12T13:09:03.935Z,0.80
2023-05-12T13:11:31.587Z,0.95
2023-05-12T13:13:59.281Z,0.75
2023-05-12T13:16:27.164Z,0.90
2023-05-12T13:18:56.345Z,0.77
2023-05-12T13:21:24.052Z,0.77
2023-05-12T13:23:51.724Z,0.95
2023-05-12T13:26:19.379Z,1.00
2023-05-12T13:28:47.098Z,1.15
2023-05-12T13:31:14.825Z,0.75
2023-05-12T13:33:42.539Z,1.00
2023-05-12T13:36:11.612Z,1.05
2023-05-12T13:38:39.841Z,0.47
2023-05-12T13:41:07.554Z,0.35
2023-05-12T13:43:35.166Z,0.63
2023-05-12T13:46:02.899Z,0.70
2023-05-12T13:48:30.635Z,1.15
2023-05-12T13:50:58.514Z,1.02
2023-05-12T13:53:27.553Z,1.10
2023-05-12T13:55:55.426Z,1.08
2023-05-12T13:58:23.083Z,1.15
2023-05-12T14:00:50.772Z,1.00
2023-05-12T14:03:18.454Z,1.10
2023-05-12T14:05:46.129Z,0.90
2023-05-12T14:08:13.785Z,0.90
2023-05-12T14:10:43.374Z,1.00
2023-05-12T14:13:11.028Z,1.20
2023-05-12T14:15:48.788Z,1.23
2023-05-12T14:18:17.390Z,1.20
2023-05-12T14:20:45.168Z,1.20
2023-05-12T14:23:12.938Z,1.27
2023-05-12T14:25:40.842Z,1.45
2023-05-12T14:28:10.222Z,1.20
2023-05-12T14:30:38.332Z,1.10
2023-05-12T14:33:06.667Z,1.25
2023-05-12T14:35:34.394Z,1.40
2023-05-12T14:38:02.065Z,1.15
2023-05-12T14:40:29.710Z,1.48
2023-05-12T14:42:57.416Z,1.10
2023-05-12T14:45:26.951Z,1.15
2023-05-12T14:47:54.887Z,1.17
2023-05-12T14:50:22.862Z,1.20
2023-05-12T14:52:50.903Z,1.00
2023-05-12T14:55:18.740Z,1.10
2023-05-12T14:57:47.858Z,0.80
2023-05-12T15:00:16.138Z,1.00
2023-05-12T15:02:46.291Z,1.17
2023-05-12T15:05:14.469Z,0.88
2023-05-12T15:07:42.182Z,0.88
2023-05-12T15:10:10.272Z,1.10
2023-05-12T15:12:37.922Z,1.02
2023-05-12T15:15:06.780Z,1.00
2023-05-12T15:17:34.504Z,1.00
2023-05-12T15:20:03.832Z,1.10
2023-05-12T15:22:31.581Z,0.80
2023-05-12T15:24:59.332Z,1.08
2023-05-12T15:27:27.091Z,0.85
2023-05-12T15:29:54.897Z,0.82
2023-05-12T15:32:22.597Z,0.88
2023-05-12T15:34:50.557Z,0.80
2023-05-12T15:37:19.600Z,0.82
2023-05-12T15:39:47.303Z,0.90
2023-05-12T15:42:22.248Z,0.65
2023-05-12T15:44:53.853Z,1.00
2023-05-12T15:47:21.525Z,1.08
2023-05-12T15:49:49.212Z,1.00
2023-05-12T15:52:16.857Z,0.40
2023-05-12T15:54:46.878Z,1.00
2023-05-12T15:57:14.594Z,0.60
2023-05-12T15:59:43.077Z,0.90
2023-05-12T16:02:11.046Z,0.50
2023-05-12T16:04:38.752Z,0.50
2023-05-12T16:07:06.513Z,0.40
2023-05-12T16:09:34.188Z,1.10
2023-05-12T16:12:03.264Z,0.70
2023-05-12T16:14:30.945Z,1.00
2023-05-12T16:16:59.102Z,1.05
2023-05-12T16:19:26.841Z,0.57
2023-05-12T16:21:54.938Z,0.20
2023-05-12T16:24:22.635Z,0.55
2023-05-12T16:26:50.335Z,0.57
2023-05-12T16:29:19.321Z,1.13
2023-05-12T16:31:46.990Z,0.50
2023-05-12T16:34:14.670Z,0.40
2023-05-12T16:36:42.398Z,0.50
2023-05-12T16:39:10.881Z,0.73
2023-05-12T16:41:38.613Z,0.98
2023-05-12T16:44:06.454Z,0.70
2023-05-12T16:46:35.753Z,0.75
2023-05-12T16:49:03.898Z,0.43
2023-05-12T16:51:32.885Z,0.38
2023-05-12T16:54:00.928Z,0.85
2023-05-12T16:56:28.691Z,0.68
2023-05-12T16:58:56.433Z,1.10
2023-05-12T17:01:24.205Z,0.40
2023-05-12T17:03:53.421Z,0.30
2023-05-12T17:06:21.159Z,0.38
2023-05-12T17:08:48.824Z,0.70
2023-05-12T17:11:16.469Z,0.30
2023-05-12T17:13:44.133Z,1.10
2023-05-12T17:16:11.841Z,1.02
2023-05-12T17:21:11.644Z,0.93
2023-05-12T17:23:39.321Z,0.43
2023-05-12T17:26:07.019Z,0.50
2023-05-12T17:28:34.711Z,0.57
2023-05-12T17:31:02.402Z,0.38
2023-05-12T17:33:30.109Z,0.32
2023-05-12T17:36:10.807Z,0.73
2023-05-12T17:38:41.845Z,0.50
2023-05-12T17:41:09.852Z,0.77
2023-05-12T17:43:37.535Z,0.63
2023-05-12T17:46:07.679Z,0.63
2023-05-12T17:48:35.470Z,0.65
2023-05-12T17:51:03.954Z,0.63
2023-05-12T17:53:32.245Z,0.50
2023-05-12T17:56:01.547Z,0.40
2023-05-12T17:58:29.314Z,0.60
2023-05-12T18:00:57.184Z,0.77
2023-05-12T18:03:24.929Z,0.47
2023-05-12T18:05:53.552Z,0.90
2023-05-12T18:08:21.539Z,0.68
2023-05-12T18:10:49.278Z,0.80
2023-05-12T18:13:18.510Z,0.40
2023-05-12T18:15:46.162Z,0.47
2023-05-12T18:18:14.601Z,0.40
2023-05-12T18:20:42.474Z,0.50
2023-05-12T18:23:10.204Z,0.30
2023-05-12T18:25:37.869Z,0.65
2023-05-12T18:28:06.515Z,0.68
2023-05-12T18:30:35.616Z,0.60
2023-05-12T18:33:03.408Z,0.60
2023-05-12T18:35:31.238Z,0.57
2023-05-12T18:37:58.883Z,0.50
2023-05-12T18:40:26.959Z,0.55
2023-05-12T18:42:54.597Z,0.80
2023-05-12T18:45:22.807Z,0.32
2023-05-12T18:47:52.355Z,1.05
2023-05-12T18:50:20.142Z,1.02
2023-05-12T18:52:47.829Z,0.57
2023-05-12T18:55:15.512Z,0.63
2023-05-12T18:57:43.205Z,0.65
2023-05-12T19:00:11.303Z,0.45
2023-05-12T19:02:39.015Z,0.63
2023-05-12T19:05:09.072Z,1.05
2023-05-12T19:07:36.804Z,0.70
2023-05-12T19:10:04.559Z,0.82
2023-05-12T19:12:32.237Z,0.88
2023-05-12T19:14:59.918Z,0.55
2023-05-12T19:17:28.253Z,0.47
2023-05-12T19:19:56.049Z,1.05
2023-05-12T19:22:26.637Z,0.50
2023-05-12T19:24:55.679Z,0.60
2023-05-12T19:27:23.400Z,1.05
2023-05-12T19:29:51.085Z,0.85
2023-05-12T19:32:18.799Z,1.00
2023-05-12T19:34:46.615Z,0.38
2023-05-12T19:37:14.308Z,0.77
2023-05-12T19:39:43.327Z,0.55
2023-05-12T19:42:10.997Z,0.47
2023-05-12T19:44:38.634Z,0.75
2023-05-12T19:47:06.481Z,0.70
2023-05-12T19:49:35.152Z,0.73
2023-05-12T19:52:02.901Z,0.55
2023-05-12T19:54:30.703Z,0.60
2023-05-12T19:56:59.780Z,0.38
2023-05-12T19:59:27.668Z,0.65
2023-05-12T20:01:55.345Z,0.47
2023-05-12T20:04:25.360Z,0.40
2023-05-12T20:06:54.421Z,0.60
2023-05-12T20:09:23.142Z,0.68
2023-05-12T20:11:51.036Z,0.50
2023-05-12T20:14:20.044Z,0.80
2023-05-12T20:16:47.720Z,0.55
2023-05-12T20:19:15.539Z,0.43
2023-05-12T20:21:43.271Z,0.70
2023-05-12T20:24:10.960Z,0.68
2023-05-12T20:26:39.014Z,1.00
2023-05-12T20:29:06.690Z,0.88
2023-05-12T20:31:35.815Z,0.50
2023-05-12T20:34:03.659Z,0.90
2023-05-12T20:36:31.335Z,0.65
2023-05-12T20:38:59.126Z,0.52
2023-05-12T20:41:27.141Z,0.85
2023-05-12T20:43:54.839Z,0.77
2023-05-12T20:46:22.666Z,0.57
2023-05-12T20:48:51.793Z,0.80
2023-05-12T20:51:19.460Z,0.63
2023-05-12T20:53:47.135Z,0.40
2023-05-12T20:56:14.777Z,0.50
2023-05-12T20:58:42.529Z,0.40
2023-05-12T21:01:10.311Z,0.40
2023-05-12T21:03:38.071Z,1.17
2023-05-12T21:06:07.416Z,0.85
2023-05-12T21:08:35.158Z,0.60
2023-05-12T21:11:02.840Z,1.02
2023-05-12T21:13:30.564Z,0.45
2023-05-12T21:15:58.206Z,0.32
2023-05-12T21:18:25.878Z,0.77
2023-05-12T21:20:53.533Z,0.75
2023-05-12T21:23:22.543Z,0.57
2023-05-12T21:25:53.315Z,0.32
2023-05-12T21:28:21.006Z,0.47
2023-05-12T21:30:48.686Z,0.40
2023-05-12T21:33:16.336Z,0.35
2023-05-12T21:35:44.026Z,0.55
2023-05-12T21:38:11.643Z,0.50
2023-05-12T21:40:40.678Z,0.55
2023-05-12T21:43:08.319Z,0.57
2023-05-12T21:45:35.939Z,0.50
2023-05-12T21:48:03.894Z,0.70
2023-05-12T21:50:31.630Z,0.57
2023-05-12T21:52:59.293Z,0.55
2023-05-12T21:55:27.186Z,0.77
2023-05-12T21:57:56.518Z,0.88
2023-05-12T22:00:24.696Z,0.50
2023-05-12T22:02:52.479Z,0.85
2023-05-12T22:05:20.319Z,0.38
2023-05-12T22:07:48.207Z,1.38
2023-05-12T22:10:15.891Z,0.63
2023-05-12T22:12:43.542Z,1.08
2023-05-12T22:15:12.818Z,0.57
2023-05-12T22:17:40.505Z,0.40
2023-05-12T22:20:09.136Z,1.00
2023-05-12T22:22:36.829Z,0.57
2023-05-12T22:25:04.778Z,1.27
2023-05-12T22:27:32.424Z,1.08
2023-05-12T22:30:00.125Z,0.63
2023-05-12T22:32:29.158Z,0.82
2023-05-12T22:34:56.850Z,0.75
2023-05-12T22:37:25.107Z,0.40
2023-05-12T22:39:52.811Z,1.17
2023-05-12T22:42:20.496Z,0.40
2023-05-12T22:44:48.146Z,0.70
2023-05-12T22:47:15.879Z,0.52
2023-05-12T22:49:44.930Z,0.82
2023-05-12T22:52:12.604Z,0.80
2023-05-12T22:54:40.290Z,0.70
2023-05-12T22:57:07.945Z,0.40
2023-05-12T22:59:35.771Z,0.65
2023-05-12T23:02:03.411Z,0.40
2023-05-12T23:04:31.117Z,1.05
2023-05-12T23:07:00.577Z,0.73
2023-05-12T23:09:28.260Z,0.90
2023-05-12T23:11:56.116Z,0.75
2023-05-12T23:14:23.852Z,0.95
2023-05-12T23:16:51.579Z,0.93
2023-05-12T23:19:19.272Z,0.90
2023-05-12T23:21:47.011Z,0.60
2023-05-12T23:24:16.035Z,0.93
2023-05-12T23:26:43.770Z,0.57
2023-05-12T23:29:11.408Z,0.35
2023-05-12T23:31:39.118Z,0.50
2023-05-12T23:34:06.839Z,0.90
2023-05-12T23:36:34.502Z,0.70
2023-05-12T23:39:02.142Z,0.85
2023-05-12T23:41:31.781Z,0.75
2023-05-12T23:43:59.479Z,0.45
2023-05-12T23:46:27.242Z,0.63
2023-05-12T23:48:55.530Z,0.52
2023-05-12T23:51:23.181Z,0.68
2023-05-12T23:53:50.907Z,1.10
2023-05-12T23:56:18.558Z,0.90
2023-05-12T23:58:47.949Z,0.93
